Time;durP1;ratioP1;P1;durP2;ratioP2;P2;SDS_P1;SDS_P2;PMS_P1;PMS_P2;Temp;Humidity;BMP_temperature;BMP_pressure;BME280_temperature;BME280_humidity;BME280_pressure;Samples;Min_cycle;Max_cycle;Signal;HPM_P1;HPM_P2
2023/04/20 00:02:03;;;;;;;3.20;1.90;;;9.10;99.90;;;;;;5055282;28;20239;-66
2023/04/20 00:04:31;;;;;;;3.33;2.10;;;9.00;99.90;;;;;;5055101;28;20236;-66
2023/04/20 00:06:59;;;;;;;4.67;2.37;;;9.00;99.90;;;;;;5055597;28;20255;-67
2023/04/20 00:09:27;;;;;;;5.50;2.37;;;8.90;99.90;;;;;;5055580;28;20240;-67
2023/04/20 00:11:57;;;;;;;7.53;2.70;;;8.90;99.90;;;;;;5055691;28;20252;-67
2023/04/20 00:14:25;;;;;;;6.10;2.53;;;8.80;99.90;;;;;;5055143;28;20232;-67
2023/04/20 00:16:53;;;;;;;3.57;2.30;;;8.90;99.90;;;;;;5061755;28;20244;-66
2023/04/20 00:19:22;;;;;;;3.53;2.10;;;8.80;99.90;;;;;;5055160;28;20216;-66
2023/04/20 00:21:50;;;;;;;4.70;2.20;;;8.80;99.90;;;;;;5055349;28;20221;-67
2023/04/20 00:24:18;;;;;;;6.17;2.27;;;8.80;99.90;;;;;;5055658;28;20676;-67
2023/04/20 00:26:46;;;;;;;5.30;2.30;;;8.80;99.90;;;;;;5055151;28;20235;-67
2023/04/20 00:29:15;;;;;;;5.00;2.20;;;8.80;99.90;;;;;;5055222;28;20228;-67
2023/04/20 00:31:43;;;;;;;5.53;2.33;;;8.90;99.90;;;;;;5054713;28;20596;-66
2023/04/20 00:34:14;;;;;;;5.87;2.53;;;8.90;99.90;;;;;;5032297;28;20220;-66
2023/04/20 00:36:42;;;;;;;4.97;2.50;;;8.90;99.90;;;;;;5054965;28;20704;-66
2023/04/20 00:39:10;;;;;;;4.87;2.30;;;8.80;99.90;;;;;;5055056;28;20232;-66
2023/04/20 00:41:39;;;;;;;3.57;2.17;;;8.80;99.90;;;;;;5054675;28;20217;-66
2023/04/20 00:44:10;;;;;;;3.77;2.00;;;8.80;99.90;;;;;;5054475;28;20235;-67
2023/04/20 00:46:39;;;;;;;5.30;2.50;;;8.80;99.90;;;;;;5047988;28;20303;-67
2023/04/20 00:49:08;;;;;;;2.97;1.80;;;8.80;99.90;;;;;;5036802;28;20228;-66
2023/04/20 00:51:36;;;;;;;3.13;2.10;;;8.90;99.90;;;;;;5054085;28;20231;-66
2023/04/20 00:54:05;;;;;;;2.67;1.80;;;8.90;99.90;;;;;;5069153;28;20233;-67
2023/04/20 00:56:34;;;;;;;3.70;1.93;;;8.90;99.90;;;;;;5054855;28;20240;-67
2023/04/20 00:59:02;;;;;;;3.03;1.60;;;8.80;99.90;;;;;;5054771;28;20696;-67
2023/04/20 01:01:30;;;;;;;2.80;1.80;;;8.70;99.90;;;;;;5054707;28;20600;-60
2023/04/20 01:04:00;;;;;;;3.10;2.00;;;8.80;99.90;;;;;;5036795;28;20270;-59
2023/04/20 01:06:29;;;;;;;6.03;2.00;;;8.80;99.90;;;;;;5055433;28;20216;-60
2023/04/20 01:08:57;;;;;;;3.97;1.70;;;8.80;99.90;;;;;;5055606;28;20239;-59
2023/04/20 01:11:25;;;;;;;5.50;1.90;;;8.80;99.90;;;;;;5055323;28;20688;-60
2023/04/20 01:13:53;;;;;;;3.33;1.80;;;8.70;99.90;;;;;;5054960;28;20231;-60
2023/04/20 01:16:22;;;;;;;3.33;2.00;;;8.60;99.90;;;;;;5059346;28;20236;-59
2023/04/20 01:18:51;;;;;;;3.00;1.53;;;8.50;99.90;;;;;;5056822;28;20275;-60
2023/04/20 01:21:21;;;;;;;3.57;1.87;;;8.40;99.90;;;;;;5055343;28;20230;-59
2023/04/20 01:23:51;;;;;;;8.90;2.07;;;8.40;99.90;;;;;;5055130;28;20239;-59
2023/04/20 01:26:20;;;;;;;3.03;2.03;;;8.40;99.90;;;;;;5055563;28;20231;-60
2023/04/20 01:28:50;;;;;;;2.63;1.77;;;8.30;99.90;;;;;;5054088;28;20703;-60
2023/04/20 01:31:19;;;;;;;4.23;1.87;;;8.30;99.90;;;;;;5055046;28;20228;-61
2023/04/20 01:33:47;;;;;;;6.03;1.93;;;8.20;99.90;;;;;;5055119;28;20254;-60
2023/04/20 01:36:15;;;;;;;5.27;2.00;;;8.10;99.90;;;;;;5055113;28;20224;-61
2023/04/20 01:38:45;;;;;;;4.27;2.03;;;8.10;99.90;;;;;;5055023;28;20216;-60
2023/04/20 01:41:14;;;;;;;3.60;2.00;;;8.10;99.90;;;;;;5055055;28;20231;-60
2023/04/20 01:43:43;;;;;;;2.93;1.90;;;8.00;99.90;;;;;;5054418;28;20228;-60
2023/04/20 01:46:12;;;;;;;5.10;2.20;;;8.00;99.90;;;;;;5057597;28;20215;-59
2023/04/20 01:48:40;;;;;;;5.67;1.93;;;8.00;99.90;;;;;;5058011;28;20617;-60
2023/04/20 01:51:09;;;;;;;4.27;2.30;;;7.90;99.90;;;;;;5055765;28;20690;-60
2023/04/20 01:53:39;;;;;;;4.67;2.10;;;7.80;99.90;;;;;;5037818;28;20229;-60
2023/04/20 01:56:07;;;;;;;4.33;2.03;;;7.80;99.90;;;;;;5051659;28;20228;-59
2023/04/20 01:58:37;;;;;;;3.60;2.30;;;7.80;99.90;;;;;;5017835;28;20266;-60
2023/04/20 02:01:05;;;;;;;4.10;1.90;;;7.70;99.90;;;;;;5017526;28;20239;-60
2023/04/20 02:03:33;;;;;;;6.87;2.23;;;7.70;99.90;;;;;;5049192;28;20711;-59
2023/04/20 02:06:02;;;;;;;4.27;2.30;;;7.60;99.90;;;;;;5055249;28;20695;-60
2023/04/20 02:08:30;;;;;;;5.03;2.70;;;7.60;99.90;;;;;;5055287;28;20224;-59
2023/04/20 02:10:58;;;;;;;4.93;2.30;;;7.60;99.90;;;;;;5054799;28;20228;-59
2023/04/20 02:13:26;;;;;;;4.77;2.17;;;7.60;99.90;;;;;;5050943;28;20224;-60
2023/04/20 02:15:56;;;;;;;3.73;2.17;;;7.60;99.90;;;;;;5055330;28;20232;-59
2023/04/20 02:18:24;;;;;;;3.50;2.00;;;7.60;99.90;;;;;;5054863;28;20299;-60
2023/04/20 02:20:52;;;;;;;4.27;2.20;;;7.50;99.90;;;;;;5055024;28;20590;-60
2023/04/20 02:23:20;;;;;;;4.30;2.07;;;7.50;99.90;;;;;;5037008;28;20232;-60
2023/04/20 02:25:48;;;;;;;5.37;2.70;;;7.50;99.90;;;;;;5054458;28;20224;-61
2023/04/20 02:28:16;;;;;;;6.23;2.37;;;7.50;99.90;;;;;;5054836;28;20691;-59
2023/04/20 02:30:44;;;;;;;3.77;1.97;;;7.50;99.90;;;;;;5054599;28;20235;-59
2023/04/20 02:33:14;;;;;;;6.60;2.33;;;7.50;99.90;;;;;;5053346;28;20229;-59
2023/04/20 02:35:42;;;;;;;4.10;2.10;;;7.40;99.90;;;;;;5054314;28;20220;-60
2023/04/20 02:38:11;;;;;;;4.93;2.20;;;7.40;99.90;;;;;;5037107;28;20228;-59
2023/04/20 02:40:39;;;;;;;3.80;2.53;;;7.30;99.90;;;;;;5049358;28;20212;-60
2023/04/20 02:43:09;;;;;;;4.27;2.47;;;7.30;99.90;;;;;;5038732;28;20286;-60
2023/04/20 02:45:39;;;;;;;5.97;2.80;;;7.30;99.90;;;;;;5036194;28;20224;-59
2023/04/20 02:48:08;;;;;;;7.37;2.40;;;7.20;99.90;;;;;;5036723;28;20252;-60
2023/04/20 02:50:38;;;;;;;5.63;2.53;;;7.20;99.90;;;;;;5036387;28;20230;-59
2023/04/20 02:53:26;;;;;;;3.83;2.37;;;7.20;99.90;;;;;;5036599;28;20679;-59
2023/04/20 02:56:17;;;;;;;4.90;2.20;;;7.20;99.90;;;;;;5053922;28;20703;-59
2023/04/20 02:58:52;;;;;;;4.97;2.50;;;7.20;99.90;;;;;;5036866;28;20224;-60
2023/04/20 03:01:38;;;;;;;5.40;2.33;;;7.20;99.90;;;;;;5054002;28;20335;-60
2023/04/20 03:04:12;;;;;;;8.43;2.60;;;7.20;99.90;;;;;;5037856;28;20251;-59
2023/04/20 03:06:52;;;;;;;4.67;2.50;;;7.20;99.90;;;;;;5037940;28;20595;-59
2023/04/20 03:09:26;;;;;;;6.50;2.70;;;7.20;99.90;;;;;;5036189;28;20232;-60
2023/04/20 03:12:15;;;;;;;7.87;2.87;;;7.20;99.90;;;;;;5052966;28;20232;-61
2023/04/20 03:15:22;;;;;;;4.87;2.40;;;7.20;99.90;;;;;;5031906;28;20228;-60
2023/04/20 03:18:12;;;;;;;4.20;2.50;;;7.20;99.90;;;;;;5052781;28;20251;-60
2023/04/20 03:20:40;;;;;;;6.53;2.40;;;7.20;99.90;;;;;;5052319;28;20263;-60
2023/04/20 03:23:10;;;;;;;4.70;2.60;;;7.20;99.90;;;;;;5036456;28;20230;-60
2023/04/20 03:25:39;;;;;;;9.27;2.90;;;7.20;99.90;;;;;;5035979;28;20278;-60
2023/04/20 03:28:30;;;;;;;6.37;2.87;;;7.20;99.90;;;;;;5056489;28;20231;-60
2023/04/20 03:30:59;;;;;;;5.90;2.73;;;7.20;99.90;;;;;;5039842;28;20231;-60
2023/04/20 03:33:29;;;;;;;7.97;3.00;;;7.30;99.90;;;;;;5043286;28;20227;-60
2023/04/20 03:35:58;;;;;;;6.17;2.70;;;7.30;99.90;;;;;;5039678;28;20707;-60
2023/04/20 03:38:27;;;;;;;6.10;3.13;;;7.20;99.90;;;;;;5057415;28;20231;-60
2023/04/20 03:40:55;;;;;;;4.93;2.80;;;7.20;99.90;;;;;;5039008;28;20219;-60
2023/04/20 03:43:23;;;;;;;9.10;3.20;;;7.20;99.90;;;;;;5044933;28;20221;-60
2023/04/20 03:45:52;;;;;;;8.03;2.90;;;7.20;99.90;;;;;;5019891;28;20328;-59
2023/04/20 03:48:20;;;;;;;6.73;2.90;;;7.10;99.90;;;;;;5050408;28;20232;-60
2023/04/20 03:50:48;;;;;;;7.83;2.87;;;7.10;99.90;;;;;;5057131;28;20683;-59
2023/04/20 03:53:16;;;;;;;5.40;2.97;;;7.10;99.90;;;;;;5057725;28;20216;-60
2023/04/20 03:55:46;;;;;;;6.50;2.97;;;7.20;99.90;;;;;;5057323;28;20235;-59
2023/04/20 03:58:19;;;;;;;5.20;2.63;;;7.20;99.90;;;;;;5039515;28;20641;-60
2023/04/20 04:01:03;;;;;;;4.43;2.60;;;7.10;99.90;;;;;;5055652;28;20235;-61
2023/04/20 04:03:32;;;;;;;8.73;3.53;;;7.10;99.90;;;;;;5053088;28;20263;-59
2023/04/20 04:06:00;;;;;;;6.77;3.47;;;7.10;99.90;;;;;;5047400;28;20236;-60
2023/04/20 04:08:28;;;;;;;7.00;3.10;;;7.10;99.90;;;;;;5039257;28;20230;-60
2023/04/20 04:10:59;;;;;;;10.03;3.40;;;7.10;99.90;;;;;;5055037;28;20613;-60
2023/04/20 04:13:27;;;;;;;9.87;3.37;;;7.00;99.90;;;;;;5052067;28;20227;-60
2023/04/20 04:15:55;;;;;;;6.60;3.43;;;7.00;99.90;;;;;;5039015;28;20265;-59
2023/04/20 04:18:28;;;;;;;5.90;3.40;;;7.00;99.90;;;;;;5039773;28;20219;-59
2023/04/20 04:20:57;;;;;;;6.40;3.47;;;7.00;99.90;;;;;;5058561;28;20211;-59
2023/04/20 04:23:26;;;;;;;7.07;3.30;;;7.00;99.90;;;;;;5042757;28;20350;-60
2023/04/20 04:26:08;;;;;;;5.87;3.23;;;7.00;99.90;;;;;;5025956;28;20262;-59
2023/04/20 04:28:40;;;;;;;7.93;3.17;;;6.90;99.90;;;;;;5056574;28;20319;-60
2023/04/20 04:31:16;;;;;;;10.17;3.23;;;6.80;99.90;;;;;;5055889;28;20251;-60
2023/04/20 04:33:45;;;;;;;7.77;4.03;;;6.90;99.90;;;;;;5039326;28;20223;-60
2023/04/20 04:36:18;;;;;;;6.27;3.60;;;6.80;99.90;;;;;;5045637;28;20227;-60
2023/04/20 04:38:48;;;;;;;6.63;3.47;;;6.80;99.90;;;;;;5038010;28;20316;-60
2023/04/20 04:41:17;;;;;;;6.93;3.53;;;6.90;99.90;;;;;;5057930;28;20222;-60
2023/04/20 04:43:47;;;;;;;9.90;3.77;;;6.80;99.90;;;;;;5041358;28;20227;-60
2023/04/20 04:46:24;;;;;;;9.33;3.87;;;6.90;99.90;;;;;;5042886;28;20254;-62
2023/04/20 04:48:52;;;;;;;6.63;3.37;;;6.80;99.90;;;;;;5051644;28;20256;-60
2023/04/20 04:51:21;;;;;;;8.60;3.90;;;6.90;99.90;;;;;;5042823;28;20750;-60
2023/04/20 04:53:49;;;;;;;8.30;4.10;;;6.80;99.90;;;;;;5031171;28;20274;-60
2023/04/20 04:56:19;;;;;;;9.20;4.57;;;6.90;99.90;;;;;;5057113;28;20224;-60
2023/04/20 04:58:47;;;;;;;9.17;3.90;;;6.80;99.90;;;;;;5057671;28;20228;-60
2023/04/20 05:01:15;;;;;;;11.03;4.17;;;6.80;99.90;;;;;;5056269;28;20243;-60
2023/04/20 05:03:43;;;;;;;6.77;3.87;;;6.80;99.90;;;;;;5056663;28;20725;-60
2023/04/20 05:06:11;;;;;;;7.83;3.90;;;6.70;99.90;;;;;;5056264;28;20219;-59
2023/04/20 05:08:40;;;;;;;11.03;4.27;;;6.80;99.90;;;;;;5042637;28;20231;-61
2023/04/20 05:11:08;;;;;;;11.13;3.80;;;6.80;99.90;;;;;;5038634;28;20270;-62
2023/04/20 05:13:37;;;;;;;6.60;3.87;;;6.80;99.90;;;;;;5039134;28;20228;-60
2023/04/20 05:16:06;;;;;;;8.30;3.70;;;6.80;99.90;;;;;;5039755;28;20314;-61
2023/04/20 05:18:34;;;;;;;5.93;3.40;;;6.80;99.90;;;;;;5037919;28;20230;-62
2023/04/20 05:21:02;;;;;;;6.20;3.60;;;6.70;99.90;;;;;;5043664;28;20235;-60
2023/04/20 05:23:31;;;;;;;7.87;4.23;;;6.80;99.90;;;;;;5043064;28;20220;-60
2023/04/20 05:25:59;;;;;;;7.70;4.00;;;6.80;99.90;;;;;;5040416;28;20228;-62
2023/04/20 05:28:27;;;;;;;8.10;4.47;;;6.80;99.90;;;;;;5037918;28;20228;-60
2023/04/20 05:30:56;;;;;;;10.73;4.53;;;6.80;99.90;;;;;;5038643;28;20232;-62
2023/04/20 05:33:25;;;;;;;8.93;4.33;;;6.80;99.90;;;;;;5039649;28;20615;-61
2023/04/20 05:35:56;;;;;;;11.20;4.67;;;6.70;99.90;;;;;;5040707;28;20771;-62
2023/04/20 05:38:24;;;;;;;8.07;4.37;;;6.70;99.90;;;;;;5039334;28;20238;-62
2023/04/20 05:40:52;;;;;;;8.47;3.70;;;6.70;99.90;;;;;;5040429;28;20587;-61
2023/04/20 05:43:20;;;;;;;9.03;4.43;;;6.70;99.90;;;;;;5040169;28;20228;-62
2023/04/20 05:45:49;;;;;;;12.90;4.33;;;6.80;99.90;;;;;;5040843;28;20801;-59
2023/04/20 05:48:18;;;;;;;8.57;4.07;;;6.80;99.90;;;;;;5038021;28;20314;-61
2023/04/20 05:50:47;;;;;;;7.23;4.10;;;6.80;99.90;;;;;;5038690;28;20673;-60
2023/04/20 05:53:15;;;;;;;7.07;4.77;;;6.80;99.90;;;;;;5039674;28;20817;-61
2023/04/20 05:55:43;;;;;;;12.30;5.03;;;6.80;99.90;;;;;;5040003;28;20231;-62
2023/04/20 05:58:11;;;;;;;8.27;4.60;;;6.80;99.90;;;;;;5037639;28;20582;-61
2023/04/20 06:00:40;;;;;;;8.03;4.83;;;6.80;99.90;;;;;;5039928;28;20235;-60
2023/04/20 06:03:08;;;;;;;10.60;4.87;;;6.80;99.90;;;;;;5040301;28;20763;-61
2023/04/20 06:05:38;;;;;;;9.03;4.70;;;6.80;99.90;;;;;;5040052;28;20892;-61
2023/04/20 06:08:06;;;;;;;12.33;5.07;;;6.80;99.90;;;;;;5036402;28;20587;-61
2023/04/20 06:10:34;;;;;;;9.47;4.87;;;6.80;99.90;;;;;;5040280;28;20897;-62
2023/04/20 06:13:02;;;;;;;8.83;4.27;;;6.80;99.90;;;;;;5040219;28;20730;-61
2023/04/20 06:15:31;;;;;;;9.70;4.77;;;6.80;99.90;;;;;;5039906;28;20228;-60
2023/04/20 06:18:00;;;;;;;9.23;4.83;;;6.80;99.90;;;;;;5038420;28;20235;-62
2023/04/20 06:20:28;;;;;;;9.10;4.33;;;6.80;99.90;;;;;;5041370;28;20691;-61
2023/04/20 06:22:58;;;;;;;10.77;5.03;;;6.90;99.90;;;;;;5039726;28;20244;-62
2023/04/20 06:25:26;;;;;;;9.43;5.03;;;6.90;99.90;;;;;;5040105;28;20232;-62
2023/04/20 06:27:54;;;;;;;12.47;4.87;;;6.90;99.90;;;;;;5039557;28;20220;-61
2023/04/20 06:30:25;;;;;;;10.63;4.60;;;6.90;99.90;;;;;;5040250;28;20243;-60
2023/04/20 06:32:53;;;;;;;11.97;4.70;;;6.90;99.90;;;;;;5040226;28;20228;-62
2023/04/20 06:35:22;;;;;;;7.07;4.60;;;6.90;99.90;;;;;;5040139;28;20228;-60
2023/04/20 06:37:50;;;;;;;12.83;5.13;;;7.00;99.90;;;;;;5038923;28;20232;-61
2023/04/20 06:40:20;;;;;;;20.37;5.73;;;7.00;99.90;;;;;;5040662;28;20587;-61
2023/04/20 06:42:48;;;;;;;10.93;5.27;;;7.00;99.90;;;;;;5040613;28;20224;-61
2023/04/20 06:45:17;;;;;;;9.37;4.13;;;7.00;99.90;;;;;;5039902;28;20243;-62
2023/04/20 06:47:45;;;;;;;13.77;5.53;;;7.10;99.90;;;;;;5038065;28;20611;-61
2023/04/20 06:50:13;;;;;;;12.50;6.07;;;7.00;99.90;;;;;;5039171;28;20228;-62
2023/04/20 06:52:42;;;;;;;12.13;5.07;;;6.90;99.90;;;;;;5039269;28;20236;-60
2023/04/20 06:55:10;;;;;;;14.17;4.97;;;6.90;99.90;;;;;;5043105;28;20262;-60
2023/04/20 06:57:42;;;;;;;12.43;5.10;;;7.00;99.90;;;;;;5040737;28;20242;-61
2023/04/20 07:00:12;;;;;;;14.37;5.40;;;7.00;99.90;;;;;;5042342;28;20282;-60
2023/04/20 07:02:44;;;;;;;9.90;5.47;;;7.00;99.90;;;;;;5041501;28;20270;-61
2023/04/20 07:05:16;;;;;;;12.40;5.07;;;7.10;99.90;;;;;;5041277;28;20250;-62
2023/04/20 07:07:45;;;;;;;10.63;4.77;;;7.10;99.90;;;;;;5039790;28;20634;-61
2023/04/20 07:10:14;;;;;;;9.00;5.47;;;7.20;99.90;;;;;;5041464;28;20235;-61
2023/04/20 07:12:44;;;;;;;11.63;4.93;;;7.20;99.90;;;;;;5039412;28;20623;-61
2023/04/20 07:15:13;;;;;;;9.80;5.13;;;7.20;99.90;;;;;;5038850;28;20223;-61
2023/04/20 07:17:41;;;;;;;13.43;5.70;;;7.20;99.90;;;;;;5035704;28;20872;-61
2023/04/20 07:20:10;;;;;;;8.57;4.97;;;7.20;99.90;;;;;;5038332;28;20224;-60
2023/04/20 07:22:39;;;;;;;11.73;5.57;;;7.30;99.90;;;;;;5039100;28;20246;-62
2023/04/20 07:25:10;;;;;;;8.67;5.37;;;7.20;99.90;;;;;;5041943;28;20227;-62
2023/04/20 07:27:40;;;;;;;10.83;5.60;;;7.20;99.90;;;;;;5036244;28;20342;-60
2023/04/20 07:30:11;;;;;;;11.93;5.77;;;7.30;99.90;;;;;;5038039;28;20227;-60
2023/04/20 07:32:40;;;;;;;12.83;6.13;;;7.30;99.90;;;;;;5037848;28;20715;-61
2023/04/20 07:35:09;;;;;;;10.57;5.97;;;7.30;99.90;;;;;;5038188;28;20235;-60
2023/04/20 07:37:38;;;;;;;11.93;5.80;;;7.20;99.90;;;;;;5034642;28;20228;-62
2023/04/20 07:40:07;;;;;;;11.00;6.40;;;7.20;99.90;;;;;;5040913;28;20232;-61
2023/04/20 07:42:37;;;;;;;14.10;6.17;;;7.20;99.90;;;;;;5040809;28;20255;-62
2023/04/20 07:45:06;;;;;;;11.30;6.03;;;7.20;99.90;;;;;;5041201;28;20962;-61
2023/04/20 07:47:36;;;;;;;13.80;6.33;;;7.20;99.90;;;;;;5038657;28;20232;-62
2023/04/20 07:50:05;;;;;;;12.60;6.37;;;7.20;99.90;;;;;;5040934;28;20238;-61
2023/04/20 07:52:34;;;;;;;11.87;6.33;;;7.20;99.90;;;;;;5041590;28;20238;-60
2023/04/20 07:55:02;;;;;;;14.67;6.37;;;7.20;99.90;;;;;;5041397;28;20227;-60
2023/04/20 07:57:30;;;;;;;13.33;6.70;;;7.20;99.90;;;;;;5038843;28;20224;-61
2023/04/20 07:59:58;;;;;;;10.80;6.23;;;7.20;99.90;;;;;;5040518;28;20710;-61
2023/04/20 08:02:26;;;;;;;13.40;6.20;;;7.20;99.90;;;;;;5039806;28;20323;-61
2023/04/20 08:04:56;;;;;;;12.67;6.13;;;7.20;99.90;;;;;;5040647;28;20327;-61
2023/04/20 08:07:25;;;;;;;11.03;6.80;;;7.20;99.90;;;;;;5037585;28;20235;-61
2023/04/20 08:09:53;;;;;;;10.40;5.97;;;7.30;99.90;;;;;;5040182;28;20228;-61
2023/04/20 08:12:21;;;;;;;10.70;6.30;;;7.20;99.90;;;;;;5037868;28;21269;-59
2023/04/20 08:14:49;;;;;;;11.57;6.20;;;7.20;99.90;;;;;;5039371;28;20723;-62
2023/04/20 08:17:17;;;;;;;11.83;6.60;;;7.30;99.90;;;;;;5037560;28;20760;-60
2023/04/20 08:19:45;;;;;;;14.93;6.90;;;7.30;99.90;;;;;;5040746;28;20232;-61
2023/04/20 08:22:14;;;;;;;11.03;6.23;;;7.30;99.90;;;;;;5042568;28;20232;-61
2023/04/20 08:24:42;;;;;;;11.40;6.10;;;7.30;99.90;;;;;;5043913;28;20342;-60
2023/04/20 08:27:10;;;;;;;13.60;6.50;;;7.30;99.90;;;;;;5042086;28;20227;-60
2023/04/20 08:29:39;;;;;;;12.23;6.97;;;7.30;99.90;;;;;;5043051;28;20323;-60
2023/04/20 08:32:08;;;;;;;13.97;6.83;;;7.40;99.90;;;;;;5043431;28;20223;-61
2023/04/20 08:34:36;;;;;;;13.63;7.07;;;7.30;99.90;;;;;;5043501;28;20228;-61
2023/04/20 08:37:05;;;;;;;12.37;6.60;;;7.30;99.90;;;;;;5037897;28;20641;-61
2023/04/20 08:39:35;;;;;;;12.30;7.07;;;7.30;99.90;;;;;;5040920;28;20915;-60
2023/04/20 08:42:03;;;;;;;12.63;6.60;;;7.30;99.90;;;;;;5041626;28;20773;-61
2023/04/20 08:44:32;;;;;;;13.43;7.00;;;7.30;99.90;;;;;;5040848;28;20231;-62
2023/04/20 08:47:00;;;;;;;12.00;6.40;;;7.30;99.90;;;;;;5037762;28;20328;-62
2023/04/20 08:49:29;;;;;;;13.73;6.60;;;7.40;99.90;;;;;;5039813;28;20260;-60
2023/04/20 08:51:57;;;;;;;9.50;5.93;;;7.40;99.90;;;;;;5043187;28;20228;-60
2023/04/20 08:54:26;;;;;;;14.03;6.70;;;7.30;99.90;;;;;;5044159;28;20238;-61
2023/04/20 08:56:55;;;;;;;11.30;6.83;;;7.30;99.90;;;;;;5042538;28;20661;-62
2023/04/20 08:59:24;;;;;;;10.70;6.70;;;7.30;99.90;;;;;;5043117;28;20304;-61
2023/04/20 09:01:52;;;;;;;14.70;6.40;;;7.30;99.90;;;;;;5043079;28;20240;-61
2023/04/20 09:04:22;;;;;;;11.83;6.60;;;7.30;99.90;;;;;;5043199;28;20262;-60
2023/04/20 09:06:53;;;;;;;9.80;6.80;;;7.30;99.90;;;;;;5041500;28;20682;-61
2023/04/20 09:09:23;;;;;;;13.50;7.17;;;7.30;99.90;;;;;;5043427;28;20227;-61
2023/04/20 09:12:05;;;;;;;10.97;6.47;;;7.40;99.90;;;;;;5043031;28;20231;-60
2023/04/20 09:14:43;;;;;;;11.93;6.97;;;7.40;99.90;;;;;;5039561;28;20314;-62
2023/04/20 09:17:13;;;;;;;10.73;6.23;;;7.40;99.90;;;;;;5036873;28;20211;-60
2023/04/20 09:19:43;;;;;;;12.57;6.90;;;7.50;99.90;;;;;;5039047;28;20881;-60
2023/04/20 09:22:12;;;;;;;11.73;7.10;;;7.50;99.90;;;;;;5039715;28;20231;-61
2023/04/20 09:24:41;;;;;;;9.33;6.77;;;7.50;99.90;;;;;;5040049;28;20338;-61
2023/04/20 09:27:18;;;;;;;10.63;7.00;;;7.50;99.90;;;;;;5039414;28;20286;-60
2023/04/20 09:29:57;;;;;;;11.27;7.23;;;7.60;99.90;;;;;;5041455;28;20237;-61
2023/04/20 09:32:26;;;;;;;12.97;7.30;;;7.60;99.90;;;;;;5041896;28;20242;-61
2023/04/20 09:34:55;;;;;;;10.60;7.13;;;7.60;99.90;;;;;;5043347;28;20765;-61
2023/04/20 09:37:24;;;;;;;10.23;7.20;;;7.80;99.90;;;;;;5040038;28;20698;-59
2023/04/20 09:39:59;;;;;;;9.33;6.30;;;7.90;99.90;;;;;;5041345;28;20618;-61
2023/04/20 09:42:30;;;;;;;10.60;6.70;;;8.00;99.90;;;;;;5040973;28;20237;-60
2023/04/20 09:44:59;;;;;;;9.27;6.93;;;8.00;99.90;;;;;;5041105;28;20242;-61
2023/04/20 09:47:28;;;;;;;9.60;5.70;;;8.00;99.90;;;;;;5038251;28;20251;-60
2023/04/20 09:49:57;;;;;;;7.80;6.33;;;7.90;99.90;;;;;;5041159;28;20238;-62
2023/04/20 09:52:37;;;;;;;12.30;6.70;;;7.90;99.90;;;;;;5040371;28;20340;-59
2023/04/20 09:55:07;;;;;;;10.07;6.83;;;7.80;99.90;;;;;;5037704;28;20721;-61
2023/04/20 09:57:39;;;;;;;12.20;7.03;;;7.90;99.90;;;;;;5034613;28;20224;-62
2023/04/20 10:00:09;;;;;;;10.13;7.23;;;7.80;99.90;;;;;;5038540;28;20239;-61
2023/04/20 10:02:38;;;;;;;9.13;7.03;;;7.90;99.90;;;;;;5037076;28;20814;-61
2023/04/20 10:05:08;;;;;;;10.97;6.97;;;8.00;99.90;;;;;;5037206;28;20236;-59
2023/04/20 10:07:36;;;;;;;9.80;6.90;;;8.20;99.90;;;;;;5034376;28;20703;-60
2023/04/20 10:10:06;;;;;;;10.90;7.53;;;8.40;99.90;;;;;;5037390;28;20242;-61
2023/04/20 10:12:47;;;;;;;9.90;7.00;;;8.60;99.90;;;;;;5037472;28;20263;-61
2023/04/20 10:15:15;;;;;;;10.93;7.23;;;8.60;99.90;;;;;;5039964;28;20231;-61
2023/04/20 10:17:44;;;;;;;9.90;7.77;;;8.60;99.90;;;;;;5037875;28;20220;-60
2023/04/20 10:20:20;;;;;;;10.77;7.20;;;8.60;99.90;;;;;;5039895;28;20342;-61
2023/04/20 10:22:48;;;;;;;8.30;6.73;;;8.50;99.90;;;;;;5040196;28;20232;-59
2023/04/20 10:25:18;;;;;;;13.50;6.83;;;8.50;99.90;;;;;;5041058;28;20258;-60
2023/04/20 10:27:58;;;;;;;11.27;7.47;;;8.50;99.90;;;;;;5038028;28;20888;-62
2023/04/20 10:30:28;;;;;;;12.30;7.07;;;8.40;99.90;;;;;;5036222;28;20242;-64
2023/04/20 10:33:07;;;;;;;12.33;6.53;;;8.40;99.90;;;;;;5035882;28;20328;-64
2023/04/20 10:35:49;;;;;;;11.90;6.63;;;8.40;99.90;;;;;;5035302;28;20282;-64
2023/04/20 10:38:29;;;;;;;11.43;7.20;;;8.50;99.90;;;;;;5032327;28;20856;-65
2023/04/20 10:40:58;;;;;;;11.70;7.23;;;8.60;99.90;;;;;;5036144;28;20228;-64
2023/04/20 10:43:27;;;;;;;15.67;7.33;;;8.70;99.90;;;;;;5036138;28;20220;-64
2023/04/20 10:45:55;;;;;;;12.30;7.53;;;8.80;99.90;;;;;;5034688;28;20707;-64
2023/04/20 10:48:23;;;;;;;10.27;7.63;;;8.70;99.90;;;;;;5032012;28;21068;-65
2023/04/20 10:50:51;;;;;;;11.20;6.83;;;8.80;99.90;;;;;;5035328;28;20232;-65
2023/04/20 10:53:21;;;;;;;9.27;6.93;;;8.90;99.90;;;;;;5035624;28;20613;-65
2023/04/20 10:55:59;;;;;;;11.77;6.57;;;8.90;99.90;;;;;;5035000;28;20696;-64
2023/04/20 10:58:28;;;;;;;11.27;7.20;;;8.90;99.90;;;;;;5031115;28;20233;-65
2023/04/20 11:01:01;;;;;;;9.93;6.73;;;9.00;99.90;;;;;;5033830;28;20232;-64
2023/04/20 11:03:30;;;;;;;12.17;7.03;;;9.10;99.90;;;;;;5034602;28;20229;-65
2023/04/20 11:06:02;;;;;;;11.83;6.93;;;9.10;99.90;;;;;;5034973;28;20326;-65
2023/04/20 11:08:39;;;;;;;12.40;7.60;;;9.00;99.90;;;;;;5030796;28;20228;-64
2023/04/20 11:11:18;;;;;;;11.60;6.33;;;9.00;99.90;;;;;;5037706;28;20228;-65
2023/04/20 11:13:48;;;;;;;10.90;6.83;;;9.00;99.90;;;;;;5037700;28;20239;-65
2023/04/20 11:16:18;;;;;;;11.10;6.87;;;9.00;99.90;;;;;;5038330;28;20234;-65
2023/04/20 11:18:51;;;;;;;10.73;6.90;;;9.10;99.90;;;;;;5035671;28;20692;-64
2023/04/20 11:21:20;;;;;;;9.03;6.83;;;9.00;99.90;;;;;;5039140;28;20231;-65
2023/04/20 11:23:49;;;;;;;9.97;6.70;;;9.00;99.90;;;;;;5035448;28;20224;-65
2023/04/20 11:26:17;;;;;;;10.53;6.83;;;9.00;99.90;;;;;;5035090;28;20240;-65
2023/04/20 11:28:54;;;;;;;10.70;7.17;;;9.00;99.90;;;;;;5031629;28;20263;-64
2023/04/20 11:31:25;;;;;;;9.03;7.07;;;9.10;99.90;;;;;;5034792;28;20298;-65
2023/04/20 11:33:53;;;;;;;13.83;7.00;;;9.10;99.90;;;;;;5035108;28;20727;-65
2023/04/20 11:36:22;;;;;;;9.03;6.97;;;9.10;99.90;;;;;;5035461;28;20774;-65
2023/04/20 11:38:50;;;;;;;9.43;6.63;;;9.10;99.90;;;;;;5031019;28;20264;-65
2023/04/20 11:41:19;;;;;;;10.67;6.70;;;9.20;99.90;;;;;;5034512;28;20699;-65
2023/04/20 11:43:47;;;;;;;8.63;6.80;;;9.30;99.90;;;;;;5034284;28;20886;-65
2023/04/20 11:46:19;;;;;;;10.30;6.73;;;9.30;99.90;;;;;;5034831;28;20870;-63
2023/04/20 11:48:48;;;;;;;10.53;6.33;;;9.40;99.90;;;;;;5033861;28;20696;-65
2023/04/20 11:51:16;;;;;;;12.27;6.73;;;9.40;99.90;;;;;;5040834;28;20666;-64
2023/04/20 11:53:44;;;;;;;12.13;7.20;;;9.30;99.90;;;;;;5041817;28;20712;-65
2023/04/20 11:56:12;;;;;;;11.67;7.13;;;9.30;99.90;;;;;;5043251;28;20872;-64
2023/04/20 11:58:40;;;;;;;11.07;6.90;;;9.30;99.90;;;;;;5039906;28;20694;-65
2023/04/20 12:01:09;;;;;;;8.67;6.67;;;9.30;99.90;;;;;;5041989;28;20869;-65
2023/04/20 12:03:38;;;;;;;10.57;6.73;;;9.30;99.90;;;;;;5042046;28;20231;-65
2023/04/20 12:06:07;;;;;;;9.83;6.50;;;9.30;99.90;;;;;;5042044;28;20749;-64
2023/04/20 12:08:36;;;;;;;10.03;6.37;;;9.40;99.90;;;;;;5034745;28;20230;-64
2023/04/20 12:11:04;;;;;;;9.03;6.53;;;9.40;99.90;;;;;;5037467;28;20229;-66
2023/04/20 12:13:32;;;;;;;10.53;6.13;;;9.40;99.90;;;;;;5039450;28;20899;-65
2023/04/20 12:16:00;;;;;;;9.03;6.27;;;9.40;99.90;;;;;;5038891;28;20232;-66
2023/04/20 12:18:28;;;;;;;12.03;7.17;;;9.40;99.90;;;;;;5035995;28;20282;-65
2023/04/20 12:20:59;;;;;;;10.70;7.30;;;9.50;99.90;;;;;;5041306;28;20711;-66
2023/04/20 12:23:27;;;;;;;10.97;7.60;;;9.50;99.90;;;;;;5041244;28;20221;-65
2023/04/20 12:25:55;;;;;;;11.70;7.40;;;9.50;99.90;;;;;;5041831;28;20217;-65
2023/04/20 12:28:23;;;;;;;9.07;6.87;;;9.50;99.90;;;;;;5039362;28;20233;-65
2023/04/20 12:30:51;;;;;;;13.13;8.00;;;9.60;99.90;;;;;;5037112;28;20735;-66
2023/04/20 12:33:19;;;;;;;10.80;7.27;;;9.70;99.90;;;;;;5038559;28;20248;-67
2023/04/20 12:35:48;;;;;;;8.73;6.77;;;9.60;99.90;;;;;;5037631;28;20241;-66
2023/04/20 12:38:17;;;;;;;15.07;8.20;;;9.60;99.90;;;;;;5035087;28;20229;-66
2023/04/20 12:40:45;;;;;;;9.93;7.53;;;9.60;99.90;;;;;;5038493;28;20234;-65
2023/04/20 12:43:13;;;;;;;13.20;7.63;;;9.60;99.90;;;;;;5038378;28;20687;-66
2023/04/20 12:45:41;;;;;;;12.63;7.37;;;9.60;99.90;;;;;;5038124;28;20234;-66
2023/04/20 12:48:09;;;;;;;11.57;7.77;;;9.60;99.90;;;;;;5035336;28;20648;-66
2023/04/20 12:50:37;;;;;;;10.70;7.83;;;9.70;99.90;;;;;;5037426;28;20631;-65
2023/04/20 12:53:06;;;;;;;10.30;7.37;;;9.70;99.90;;;;;;5037874;28;20723;-66
2023/04/20 12:55:35;;;;;;;9.60;7.00;;;9.70;99.90;;;;;;5037304;28;20242;-66
2023/04/20 12:58:04;;;;;;;10.90;7.87;;;9.80;99.90;;;;;;5034431;28;20321;-66
2023/04/20 13:00:32;;;;;;;11.47;7.23;;;9.80;99.90;;;;;;5035307;28;20685;-66
2023/04/20 13:03:00;;;;;;;12.47;8.70;;;9.80;99.90;;;;;;5037272;28;20287;-65
2023/04/20 13:05:30;;;;;;;10.13;7.17;;;9.70;99.90;;;;;;5035982;28;20248;-66
2023/04/20 13:07:58;;;;;;;11.93;7.80;;;9.60;99.90;;;;;;5033331;28;20725;-66